createdAt,value
2022-11-28T00:01:38.852Z,30.93
2022-11-28T00:04:09.268Z,29.57
2022-11-28T00:06:39.183Z,30.80
2022-11-28T00:09:09.429Z,29.90
2022-11-28T00:11:37.471Z,28.77
2022-11-28T00:14:05.950Z,29.80
2022-11-28T00:16:34.142Z,29.83
2022-11-28T00:19:03.527Z,29.00
2022-11-28T00:21:33.130Z,29.43
2022-11-28T00:24:02.375Z,28.70
2022-11-28T00:26:32.684Z,29.47
2022-11-28T00:29:01.240Z,28.97
2022-11-28T00:31:32.002Z,29.43
2022-11-28T00:34:01.848Z,29.07
2022-11-28T00:36:32.061Z,29.90
2022-11-28T00:39:00.516Z,30.27
2022-11-28T00:41:31.039Z,30.37
2022-11-28T00:43:59.300Z,32.47
2022-11-28T00:46:27.969Z,31.47
2022-11-28T00:48:56.110Z,30.30
2022-11-28T00:51:27.160Z,30.13
2022-11-28T00:53:58.098Z,29.50
2022-11-28T00:56:28.783Z,27.07
2022-11-28T00:58:57.176Z,26.10
2022-11-28T01:01:27.499Z,26.00
2022-11-28T01:03:58.769Z,25.03
2022-11-28T01:06:29.205Z,24.53
2022-11-28T01:09:00.667Z,23.87
2022-11-28T01:11:29.330Z,23.93
2022-11-28T01:13:58.269Z,21.13
2022-11-28T01:16:26.384Z,21.07
2022-11-28T01:18:54.800Z,21.53
2022-11-28T01:21:23.200Z,21.90
2022-11-28T01:23:52.138Z,21.53
2022-11-28T01:26:23.546Z,20.53
2022-11-28T01:28:51.982Z,21.13
2022-11-28T01:31:22.090Z,19.80
2022-11-28T01:33:51.053Z,20.50
2022-11-28T01:36:20.997Z,20.63
2022-11-28T01:38:49.817Z,21.43
2022-11-28T01:41:22.755Z,21.17
2022-11-28T01:44:07.913Z,20.87
2022-11-28T01:46:37.468Z,21.57
2022-11-28T01:49:10.792Z,20.97
2022-11-28T01:51:41.663Z,21.73
2022-11-28T01:54:09.773Z,21.97
2022-11-28T01:56:44.809Z,22.00
2022-11-28T01:59:16.111Z,21.50
2022-11-28T02:01:45.078Z,22.27
2022-11-28T02:04:14.828Z,22.73
2022-11-28T02:06:43.529Z,23.90
2022-11-28T02:09:13.958Z,23.33
2022-11-28T02:12:02.633Z,23.53
2022-11-28T02:14:51.079Z,25.47
2022-11-28T02:17:31.632Z,25.27
2022-11-28T02:20:39.203Z,24.80
2022-11-28T02:23:13.620Z,24.53
2022-11-28T02:26:17.145Z,26.07
2022-11-28T02:29:04.469Z,25.40
2022-11-28T02:32:02.781Z,26.17
2022-11-28T02:34:37.029Z,25.73
2022-11-28T02:37:09.864Z,26.57
2022-11-28T02:39:47.214Z,24.83
2022-11-28T02:42:21.959Z,26.10
2022-11-28T02:45:00.006Z,25.17
2022-11-28T02:47:33.305Z,24.90
2022-11-28T02:50:10.037Z,25.93
2022-11-28T02:52:43.254Z,24.87
2022-11-28T02:55:11.942Z,26.23
2022-11-28T02:57:41.906Z,25.90
2022-11-28T03:00:29.993Z,25.20
2022-11-28T03:03:26.411Z,24.50
2022-11-28T03:06:01.422Z,25.80
2022-11-28T03:08:41.296Z,24.40
2022-11-28T03:11:16.586Z,25.53
2022-11-28T03:13:58.693Z,25.30
2022-11-28T03:16:31.007Z,24.33
2022-11-28T03:19:06.576Z,25.93
2022-11-28T03:21:41.366Z,26.23
2022-11-28T03:24:17.316Z,25.97
2022-11-28T03:26:53.615Z,26.07
2022-11-28T03:29:26.912Z,26.50
2022-11-28T03:31:58.127Z,26.23
2022-11-28T03:34:31.830Z,26.10
2022-11-28T03:37:04.292Z,25.63
2022-11-28T03:39:39.011Z,26.20
2022-11-28T03:42:11.293Z,25.87
2022-11-28T03:44:47.997Z,25.97
2022-11-28T03:47:16.372Z,26.43
2022-11-28T03:49:48.911Z,24.67
2022-11-28T03:52:26.461Z,26.17
2022-11-28T03:54:58.328Z,24.40
2022-11-28T03:57:34.275Z,25.67
2022-11-28T04:00:07.262Z,23.63
2022-11-28T04:02:39.971Z,24.80
2022-11-28T04:05:18.626Z,24.93
2022-11-28T04:07:53.888Z,23.97
2022-11-28T04:10:28.714Z,24.60
2022-11-28T04:13:02.598Z,23.70
2022-11-28T04:15:38.939Z,23.70
2022-11-28T04:18:16.420Z,23.40
2022-11-28T04:20:50.749Z,24.43
2022-11-28T04:23:22.856Z,24.80
2022-11-28T04:25:55.541Z,25.03
2022-11-28T04:28:26.794Z,25.03
2022-11-28T04:30:57.603Z,25.00
2022-11-28T04:33:27.968Z,25.50
2022-11-28T04:35:58.476Z,25.30
2022-11-28T04:38:30.338Z,26.60
2022-11-28T04:41:04.186Z,26.60
2022-11-28T04:43:36.026Z,27.20
2022-11-28T04:46:11.647Z,26.47
2022-11-28T04:48:39.745Z,27.50
2022-11-28T04:51:19.147Z,27.37
2022-11-28T04:53:55.412Z,27.23
2022-11-28T04:56:29.560Z,27.97
2022-11-28T04:59:04.454Z,26.73
2022-11-28T05:01:33.673Z,27.37
2022-11-28T05:04:04.334Z,27.30
2022-11-28T05:06:34.844Z,27.03
2022-11-28T05:09:04.992Z,27.13
2022-11-28T05:11:33.268Z,27.70
2022-11-28T05:14:01.380Z,28.20
2022-11-28T05:16:29.609Z,28.53
2022-11-28T05:18:58.066Z,28.53
2022-11-28T05:21:26.194Z,28.33
2022-11-28T05:23:54.203Z,28.03
2022-11-28T05:26:23.872Z,28.63
2022-11-28T05:28:52.903Z,27.97
2022-11-28T05:31:22.780Z,27.50
2022-11-28T05:33:50.964Z,27.50
2022-11-28T05:36:19.343Z,29.17
2022-11-28T05:38:47.596Z,28.77
2022-11-28T05:41:21.046Z,28.87
2022-11-28T05:43:51.054Z,29.67
2022-11-28T05:46:19.968Z,28.93
2022-11-28T05:48:48.048Z,28.37
2022-11-28T05:51:16.301Z,28.43
2022-11-28T05:53:44.377Z,27.00
2022-11-28T05:56:14.782Z,28.50
2022-11-28T05:58:42.958Z,28.27
2022-11-28T06:01:16.935Z,28.77
2022-11-28T06:03:45.622Z,29.60
2022-11-28T06:06:15.011Z,28.43
2022-11-28T06:08:43.761Z,28.67
2022-11-28T06:11:12.503Z,28.00
2022-11-28T06:13:40.516Z,27.90
2022-11-28T06:16:09.931Z,27.93
2022-11-28T06:18:40.301Z,27.83
2022-11-28T06:21:09.893Z,26.93
2022-11-28T06:23:38.498Z,28.33
2022-11-28T06:26:08.099Z,27.53
2022-11-28T06:28:36.648Z,29.77
2022-11-28T06:31:05.431Z,28.17
2022-11-28T06:33:33.527Z,28.13
2022-11-28T06:36:04.143Z,29.40
2022-11-28T06:38:33.117Z,27.00
2022-11-28T06:41:02.385Z,28.40
2022-11-28T06:43:31.432Z,27.97
2022-11-28T06:45:59.799Z,27.70
2022-11-28T06:48:28.314Z,27.93
2022-11-28T06:51:02.494Z,28.37
2022-11-28T06:53:32.080Z,27.40
2022-11-28T06:56:04.900Z,28.97
2022-11-28T06:58:32.962Z,27.77
2022-11-28T07:01:07.490Z,27.80
2022-11-28T07:03:36.335Z,28.37
2022-11-28T07:06:05.587Z,28.60
2022-11-28T07:08:35.907Z,28.60
2022-11-28T07:11:12.606Z,28.87
2022-11-28T07:13:42.373Z,29.13
2022-11-28T07:16:15.596Z,28.00
2022-11-28T07:18:43.858Z,28.30
2022-11-28T07:21:12.198Z,26.53
2022-11-28T07:23:42.182Z,27.97
2022-11-28T07:26:11.344Z,27.63
2022-11-28T07:28:39.356Z,27.57
2022-11-28T07:31:10.745Z,27.07
2022-11-28T07:33:39.888Z,27.17
2022-11-28T07:36:12.858Z,27.07
2022-11-28T07:38:42.353Z,27.07
2022-11-28T07:41:12.793Z,27.17
2022-11-28T07:43:42.894Z,28.27
2022-11-28T07:46:14.815Z,27.37
2022-11-28T07:48:43.352Z,26.67
2022-11-28T07:51:12.937Z,27.73
2022-11-28T07:53:43.416Z,26.03
2022-11-28T07:56:15.093Z,24.17
2022-11-28T07:58:44.675Z,22.83
2022-11-28T08:01:14.951Z,23.13
2022-11-28T08:03:44.656Z,21.87
2022-11-28T08:06:13.642Z,21.77
2022-11-28T08:08:44.021Z,22.50
2022-11-28T08:11:12.647Z,22.07
2022-11-28T08:13:41.306Z,21.63
2022-11-28T08:16:11.271Z,22.83
2022-11-28T08:18:39.496Z,21.97
2022-11-28T08:21:10.113Z,21.23
2022-11-28T08:23:39.299Z,21.10
2022-11-28T08:26:11.306Z,20.63
2022-11-28T08:28:39.348Z,19.13
2022-11-28T08:31:11.935Z,19.20
2022-11-28T08:33:40.747Z,18.37
2022-11-28T08:36:09.583Z,18.67
2022-11-28T08:38:38.440Z,17.93
2022-11-28T08:41:09.365Z,17.07
2022-11-28T08:43:39.037Z,16.80
2022-11-28T08:46:08.324Z,17.20
2022-11-28T08:48:36.568Z,17.00
2022-11-28T08:51:05.270Z,17.90
2022-11-28T08:53:33.753Z,17.00
2022-11-28T08:56:02.239Z,16.13
2022-11-28T08:58:31.616Z,17.00
2022-11-28T09:00:59.699Z,15.83
2022-11-28T09:03:27.758Z,15.83
2022-11-28T09:06:02.302Z,16.07
2022-11-28T09:08:30.350Z,14.17
2022-11-28T09:10:58.368Z,14.07
2022-11-28T09:13:26.434Z,13.90
2022-11-28T09:15:56.157Z,14.47
2022-11-28T09:18:24.614Z,14.10
2022-11-28T09:20:58.892Z,14.33
2022-11-28T09:23:27.271Z,14.53
2022-11-28T09:25:55.336Z,13.53
2022-11-28T09:28:23.612Z,13.23
2022-11-28T09:30:52.027Z,14.60
2022-11-28T09:33:21.644Z,12.57
2022-11-28T09:35:49.830Z,12.40
2022-11-28T09:38:33.539Z,12.50
2022-11-28T09:41:03.471Z,12.47
2022-11-28T09:43:36.168Z,12.83
2022-11-28T09:46:07.216Z,13.00
2022-11-28T09:48:39.412Z,13.23
2022-11-28T09:51:20.044Z,13.27
2022-11-28T09:53:58.537Z,12.70
2022-11-28T09:56:26.596Z,12.90
2022-11-28T09:58:58.890Z,13.53
2022-11-28T10:01:33.391Z,13.17
2022-11-28T10:04:07.403Z,13.20
2022-11-28T10:06:41.610Z,13.00
2022-11-28T10:09:23.763Z,12.10
2022-11-28T10:12:06.732Z,12.27
2022-11-28T10:14:57.175Z,11.80
2022-11-28T10:17:35.638Z,11.27
2022-11-28T10:20:12.225Z,12.00
2022-11-28T10:22:50.732Z,10.97
2022-11-28T10:25:21.325Z,10.83
2022-11-28T10:27:50.675Z,11.37
2022-11-28T10:30:23.647Z,11.33
2022-11-28T10:33:03.159Z,11.20
2022-11-28T10:35:41.294Z,12.00
2022-11-28T10:38:12.954Z,11.60
2022-11-28T10:40:49.198Z,11.87
2022-11-28T10:43:31.103Z,11.03
2022-11-28T10:46:17.220Z,11.47
2022-11-28T10:48:53.472Z,11.53
2022-11-28T10:51:34.169Z,11.37
2022-11-28T10:54:20.773Z,11.73
2022-11-28T10:56:56.643Z,12.20
2022-11-28T10:59:37.205Z,11.73
2022-11-28T11:02:22.684Z,11.20
2022-11-28T11:04:52.118Z,11.17
2022-11-28T11:07:29.723Z,11.53
2022-11-28T11:10:01.594Z,11.63
2022-11-28T11:12:32.776Z,11.40
2022-11-28T11:15:15.857Z,11.20
2022-11-28T11:17:44.029Z,10.93
2022-11-28T11:20:29.453Z,10.70
2022-11-28T11:23:01.225Z,10.80
2022-11-28T11:25:33.359Z,10.73
2022-11-28T11:28:04.558Z,10.13
2022-11-28T11:30:35.961Z,11.07
2022-11-28T11:33:07.140Z,10.03
2022-11-28T11:35:37.828Z,9.47
2022-11-28T11:38:32.342Z,10.70
2022-11-28T11:41:27.933Z,9.33
2022-11-28T11:43:56.587Z,9.00
2022-11-28T11:46:24.939Z,8.37
2022-11-28T11:48:54.466Z,8.40
2022-11-28T11:51:25.380Z,9.43
2022-11-28T11:54:06.133Z,8.63
2022-11-28T11:56:38.766Z,9.73
2022-11-28T11:59:13.199Z,8.93
2022-11-28T12:01:43.151Z,9.60
2022-11-28T12:04:43.934Z,10.07
2022-11-28T12:07:11.011Z,9.57
2022-11-28T12:09:45.454Z,9.70
2022-11-28T12:12:18.906Z,9.87
2022-11-28T12:14:49.167Z,10.17
2022-11-28T12:20:44.169Z,9.07
2022-11-28T12:23:29.344Z,8.87
2022-11-28T12:26:05.884Z,9.03
2022-11-28T12:28:46.347Z,9.03
2022-11-28T12:31:25.170Z,9.47
2022-11-28T12:34:04.922Z,10.13
2022-11-28T12:36:37.833Z,10.50
2022-11-28T12:39:17.821Z,9.53
2022-11-28T12:42:10.378Z,10.10
2022-11-28T12:44:59.972Z,10.40
2022-11-28T12:47:41.444Z,9.90
2022-11-28T12:50:22.164Z,9.37
2022-11-28T12:52:57.837Z,8.97
2022-11-28T12:55:34.470Z,9.30
2022-11-28T12:58:12.287Z,9.43
2022-11-28T13:00:51.368Z,8.47
2022-11-28T13:03:41.037Z,9.07
2022-11-28T13:06:22.393Z,9.70
2022-11-28T13:09:06.512Z,9.67
2022-11-28T13:11:55.334Z,9.87
2022-11-28T13:14:34.605Z,9.70
2022-11-28T13:17:15.608Z,9.80
2022-11-28T13:19:52.851Z,9.67
2022-11-28T13:22:26.031Z,9.90
2022-11-28T13:25:01.645Z,10.03
2022-11-28T13:27:38.860Z,9.80
2022-11-28T13:30:22.178Z,9.97
2022-11-28T13:32:56.075Z,9.37
2022-11-28T13:35:24.718Z,9.93
2022-11-28T13:40:50.482Z,9.87
2022-11-28T13:43:25.761Z,9.53
2022-11-28T13:45:56.089Z,9.80
2022-11-28T13:51:41.759Z,9.93
2022-11-28T13:54:40.138Z,9.90
2022-11-28T13:57:28.217Z,10.27
2022-11-28T14:00:04.539Z,9.73
2022-11-28T14:02:45.761Z,10.50
2022-11-28T14:05:29.954Z,10.87
2022-11-28T14:07:59.021Z,10.20
2022-11-28T14:10:56.580Z,10.43
2022-11-28T14:13:49.936Z,10.10
2022-11-28T14:16:28.537Z,10.07
2022-11-28T14:19:10.953Z,9.33
2022-11-28T14:21:50.103Z,9.90
2022-11-28T14:24:28.376Z,10.27
2022-11-28T14:27:03.775Z,11.67
2022-11-28T14:29:36.262Z,10.97
2022-11-28T14:34:55.296Z,11.50
2022-11-28T14:37:55.685Z,12.20
2022-11-28T14:41:05.428Z,12.53
2022-11-28T14:43:35.734Z,11.87
2022-11-28T14:46:28.339Z,12.80
2022-11-28T14:49:23.780Z,12.40
2022-11-28T14:52:38.545Z,12.70
2022-11-28T14:55:18.799Z,14.10
2022-11-28T14:57:58.736Z,14.87
2022-11-28T15:00:30.032Z,17.17
2022-11-28T15:03:21.121Z,18.93
2022-11-28T15:05:53.168Z,20.23
2022-11-28T15:08:39.666Z,20.67
2022-11-28T15:11:23.114Z,22.00
2022-11-28T15:14:10.006Z,22.47
2022-11-28T15:16:46.631Z,24.00
2022-11-28T15:19:24.438Z,24.30
2022-11-28T15:21:57.545Z,24.70
2022-11-28T15:24:30.911Z,33.23
2022-11-28T15:27:17.903Z,30.93
2022-11-28T15:29:55.280Z,25.80
2022-11-28T15:32:24.908Z,25.37
2022-11-28T15:34:55.979Z,24.37
2022-11-28T15:37:27.305Z,25.27
2022-11-28T15:39:57.694Z,24.13
2022-11-28T15:42:30.551Z,24.80
2022-11-28T15:45:01.215Z,24.80
2022-11-28T15:47:29.808Z,24.87
2022-11-28T15:50:03.655Z,25.60
2022-11-28T15:52:32.470Z,25.07
2022-11-28T15:55:02.066Z,25.10
2022-11-28T15:57:32.613Z,24.80
2022-11-28T16:00:03.038Z,25.13
2022-11-28T16:02:35.703Z,26.33
2022-11-28T16:05:09.302Z,24.47
2022-11-28T16:07:42.429Z,24.77
2022-11-28T16:10:23.648Z,25.93
2022-11-28T16:12:55.470Z,25.90
2022-11-28T16:15:25.874Z,25.10
2022-11-28T16:17:55.592Z,25.90
2022-11-28T16:20:26.718Z,25.83
2022-11-28T16:23:00.919Z,26.03
2022-11-28T16:25:32.656Z,26.63
2022-11-28T16:28:01.114Z,26.30
2022-11-28T16:30:34.835Z,27.50
2022-11-28T16:33:03.303Z,27.37
2022-11-28T16:35:34.551Z,26.87
2022-11-28T16:38:06.809Z,25.97
2022-11-28T16:40:36.416Z,24.87
2022-11-28T16:43:06.380Z,25.03
2022-11-28T16:45:35.152Z,24.67
2022-11-28T16:48:08.824Z,25.83
2022-11-28T16:50:37.966Z,25.40
2022-11-28T16:53:06.896Z,25.17
2022-11-28T16:55:46.309Z,25.50
2022-11-28T16:58:23.655Z,24.67
2022-11-28T17:01:03.556Z,26.47
2022-11-28T17:03:49.923Z,25.23
2022-11-28T17:06:24.872Z,25.07
2022-11-28T17:08:53.177Z,25.73
2022-11-28T17:11:25.116Z,24.90
2022-11-28T17:13:57.225Z,25.40
2022-11-28T17:16:27.053Z,23.10
2022-11-28T17:18:55.271Z,23.87
2022-11-28T17:21:33.056Z,24.53
2022-11-28T17:24:01.685Z,25.17
2022-11-28T17:26:31.582Z,24.17
2022-11-28T17:28:59.916Z,22.90
2022-11-28T17:31:28.089Z,22.00
2022-11-28T17:33:56.181Z,22.40
2022-11-28T17:36:25.033Z,22.30
2022-11-28T17:38:53.172Z,22.67
2022-11-28T17:41:23.278Z,23.03
2022-11-28T17:43:52.810Z,23.07
2022-11-28T17:46:21.541Z,22.30
2022-11-28T17:48:50.055Z,22.93
2022-11-28T17:51:18.192Z,25.10
2022-11-28T17:53:46.259Z,23.40
2022-11-28T17:56:14.716Z,23.07
2022-11-28T17:58:42.857Z,22.03
2022-11-28T18:01:14.689Z,22.93
2022-11-28T18:03:42.824Z,22.03
2022-11-28T18:06:17.437Z,21.40
2022-11-28T18:08:46.337Z,20.90
2022-11-28T18:11:16.295Z,21.23
2022-11-28T18:13:44.798Z,21.67
2022-11-28T18:16:16.256Z,20.80
2022-11-28T18:18:44.489Z,21.73
2022-11-28T18:21:13.172Z,21.17
2022-11-28T18:23:43.016Z,22.27
2022-11-28T18:26:13.510Z,22.63
2022-11-28T18:28:42.406Z,20.93
2022-11-28T18:31:11.830Z,20.30
2022-11-28T18:33:41.978Z,20.17
2022-11-28T18:36:12.066Z,20.33
2022-11-28T18:38:40.683Z,20.77
2022-11-28T18:41:10.539Z,19.37
2022-11-28T18:43:39.191Z,20.30
2022-11-28T18:46:08.991Z,19.87
2022-11-28T18:48:39.685Z,20.43
2022-11-28T18:51:14.207Z,21.23
2022-11-28T18:53:43.015Z,21.10
2022-11-28T18:56:12.374Z,20.33
2022-11-28T18:58:43.114Z,19.97
2022-11-28T19:01:12.680Z,19.63
2022-11-28T19:03:41.583Z,19.23
2022-11-28T19:06:12.944Z,20.70
2022-11-28T19:08:41.493Z,20.40
2022-11-28T19:14:06.771Z,19.43
2022-11-28T19:16:37.494Z,17.83
2022-11-28T19:19:07.257Z,18.30
2022-11-28T19:21:37.525Z,18.20
2022-11-28T19:24:08.325Z,17.40
2022-11-28T19:26:38.124Z,17.17
2022-11-28T19:29:07.498Z,18.70
2022-11-28T19:31:38.154Z,17.67
2022-11-28T19:34:07.641Z,17.77
2022-11-28T19:36:41.315Z,17.60
2022-11-28T19:39:13.885Z,18.10
2022-11-28T19:41:42.079Z,16.90
2022-11-28T19:44:11.475Z,16.97
2022-11-28T19:46:39.754Z,16.30
2022-11-28T19:49:12.424Z,16.27
2022-11-28T19:51:47.551Z,16.77
2022-11-28T19:54:15.987Z,18.03
2022-11-28T19:56:47.362Z,17.23
2022-11-28T19:59:16.305Z,17.83
2022-11-28T20:01:45.515Z,16.97
2022-11-28T20:04:20.313Z,16.83
2022-11-28T20:06:55.974Z,16.80
2022-11-28T20:09:27.865Z,19.23
2022-11-28T20:11:55.991Z,17.80
2022-11-28T20:14:24.156Z,18.03
2022-11-28T20:16:52.446Z,18.73
2022-11-28T20:19:20.784Z,17.60
2022-11-28T20:21:50.837Z,18.53
2022-11-28T20:24:19.135Z,18.43
2022-11-28T20:26:47.645Z,18.63
2022-11-28T20:29:17.681Z,18.77
2022-11-28T20:31:48.359Z,19.67
2022-11-28T20:34:18.946Z,20.30
2022-11-28T20:36:51.360Z,19.57
2022-11-28T20:39:21.052Z,17.27
2022-11-28T20:41:49.220Z,18.13
2022-11-28T20:44:17.782Z,18.27
2022-11-28T20:46:49.843Z,16.63
2022-11-28T20:49:18.878Z,17.50
2022-11-28T20:51:47.449Z,17.90
2022-11-28T20:54:15.662Z,16.90
2022-11-28T20:59:39.621Z,17.67
2022-11-28T21:02:07.913Z,18.10
2022-11-28T21:04:36.092Z,16.80
2022-11-28T21:07:04.232Z,18.00
2022-11-28T21:09:32.363Z,16.60
2022-11-28T21:12:02.142Z,17.43
2022-11-28T21:14:30.483Z,17.90
2022-11-28T21:16:59.629Z,17.53
2022-11-28T21:19:27.810Z,16.77
2022-11-28T21:21:56.049Z,17.70
2022-11-28T21:24:24.672Z,18.00
2022-11-28T21:26:54.687Z,17.27
2022-11-28T21:29:25.376Z,18.27
2022-11-28T21:31:54.550Z,17.40
2022-11-28T21:34:22.938Z,17.03
2022-11-28T21:36:51.997Z,18.00
2022-11-28T21:39:22.056Z,17.73
2022-11-28T21:41:52.081Z,17.60
2022-11-28T21:44:20.656Z,18.23
2022-11-28T21:46:50.295Z,17.97
2022-11-28T21:49:19.799Z,19.17
2022-11-28T21:51:48.046Z,19.33
2022-11-28T21:54:16.403Z,18.33
2022-11-28T21:56:44.796Z,19.27
2022-11-28T21:59:12.859Z,19.00
2022-11-28T22:01:41.495Z,18.77
2022-11-28T22:04:11.838Z,19.23
2022-11-28T22:06:40.113Z,17.83
2022-11-28T22:09:09.827Z,18.97
2022-11-28T22:11:39.294Z,18.40
2022-11-28T22:14:08.108Z,18.97
2022-11-28T22:16:36.517Z,18.83
2022-11-28T22:19:05.112Z,18.93
2022-11-28T22:21:52.107Z,19.47
2022-11-28T22:24:23.008Z,18.30
2022-11-28T22:26:51.640Z,18.37
2022-11-28T22:29:20.109Z,18.93
2022-11-28T22:31:48.683Z,18.77
2022-11-28T22:34:17.135Z,18.13
2022-11-28T22:36:49.983Z,17.23
2022-11-28T22:39:18.211Z,18.07
2022-11-28T22:41:47.743Z,18.63
2022-11-28T22:44:16.298Z,19.33
2022-11-28T22:46:44.847Z,18.13
2022-11-28T22:49:14.385Z,18.50
2022-11-28T22:51:42.913Z,19.00
2022-11-28T22:54:13.891Z,18.00
2022-11-28T22:56:43.097Z,18.93
2022-11-28T22:59:14.146Z,18.53
2022-11-28T23:01:43.878Z,18.40
2022-11-28T23:04:12.426Z,19.47
2022-11-28T23:06:40.984Z,19.60
2022-11-28T23:09:10.788Z,20.93
2022-11-28T23:11:42.344Z,19.97
2022-11-28T23:14:14.489Z,20.90
2022-11-28T23:16:43.993Z,20.63
2022-11-28T23:19:15.243Z,21.33
2022-11-28T23:21:45.856Z,21.27
2022-11-28T23:24:16.393Z,20.03
2022-11-28T23:26:46.103Z,20.87
2022-11-28T23:29:14.581Z,19.63
2022-11-28T23:31:46.375Z,20.30
2022-11-28T23:34:15.095Z,20.67
2022-11-28T23:36:45.477Z,20.80
2022-11-28T23:39:16.006Z,20.73
2022-11-28T23:41:46.412Z,20.43
2022-11-28T23:44:16.029Z,19.87
2022-11-28T23:46:44.925Z,21.53
2022-11-28T23:49:13.918Z,21.97
2022-11-28T23:51:42.250Z,21.77
2022-11-28T23:54:11.799Z,21.80
2022-11-28T23:56:41.326Z,21.73
2022-11-28T23:59:13.307Z,21.70
